Terminal Aerodrome Forecast
Issued by NWS Grand Junction, CO

Home | Current Version | Previous Version | Text Only | Print | Product List | Glossary On
Versions: 1 2 3 4 5 6 7 8 9 10 11 12
000
FTUS45 KGJT 310520
TAFGJT
TAF
KGJT 310520Z 3106/0106 11007KT P6SM SCT250
     FM311800 32008G15KT P6SM SCT250
     FM010200 08007KT P6SM FEW250=

USA.gov is the U.S. government's official web portal to all federal, state and local government web resources and services.